createdAt,value
2022-08-05T00:02:51.317Z,3.70
2022-08-05T00:06:04.978Z,3.65
2022-08-05T00:09:19.431Z,3.45
2022-08-05T00:12:22.753Z,3.45
2022-08-05T00:15:56.383Z,3.63
2022-08-05T00:18:50.179Z,3.70
2022-08-05T00:21:54.049Z,3.47
2022-08-05T00:24:58.667Z,3.80
2022-08-05T00:28:01.714Z,3.40
2022-08-05T00:31:07.586Z,3.60
2022-08-05T00:34:55.858Z,3.83
2022-08-05T00:37:50.906Z,3.97
2022-08-05T00:41:00.135Z,3.83
2022-08-05T00:44:03.609Z,3.50
2022-08-05T00:47:06.797Z,3.50
2022-08-05T00:50:15.226Z,3.80
2022-08-05T00:53:45.057Z,3.72
2022-08-05T00:56:51.822Z,3.53
2022-08-05T00:59:55.762Z,3.58
2022-08-05T01:03:00.066Z,3.58
2022-08-05T01:06:05.357Z,4.10
2022-08-05T01:09:08.619Z,3.67
2022-08-05T01:12:19.229Z,4.10
2022-08-05T01:15:35.547Z,3.90
2022-08-05T01:18:56.183Z,3.22
2022-08-05T01:22:24.069Z,3.75
2022-08-05T01:25:53.756Z,3.65
2022-08-05T01:29:04.385Z,4.50
2022-08-05T01:32:18.678Z,4.55
2022-08-05T01:35:51.060Z,4.93
2022-08-05T01:38:51.496Z,6.63
2022-08-05T01:41:56.980Z,6.18
2022-08-05T01:45:03.472Z,5.55
2022-08-05T01:48:10.880Z,4.88
2022-08-05T01:51:15.946Z,4.95
2022-08-05T01:54:25.489Z,5.20
2022-08-05T01:58:09.705Z,4.57
2022-08-05T02:01:00.676Z,4.53
2022-08-05T02:04:05.408Z,4.68
2022-08-05T02:07:08.531Z,4.20
2022-08-05T02:10:17.533Z,4.72
2022-08-05T02:13:28.583Z,4.95
2022-08-05T02:16:55.383Z,4.07
2022-08-05T02:20:02.948Z,4.43
2022-08-05T02:23:10.248Z,4.63
2022-08-05T02:26:17.445Z,4.35
2022-08-05T02:29:26.067Z,4.18
2022-08-05T02:32:34.579Z,4.38
2022-08-05T02:35:49.910Z,4.18
2022-08-05T02:38:59.723Z,4.28
2022-08-05T02:42:04.978Z,4.57
2022-08-05T02:45:10.372Z,4.75
2022-08-05T02:48:15.990Z,4.57
2022-08-05T02:51:28.207Z,4.65
2022-08-05T02:54:50.760Z,4.63
2022-08-05T02:58:10.139Z,3.83
2022-08-05T03:01:24.894Z,4.13
2022-08-05T03:04:30.641Z,3.83
2022-08-05T03:08:00.331Z,4.43
2022-08-05T03:11:47.620Z,4.43
2022-08-05T03:14:21.494Z,4.28
2022-08-05T03:17:24.713Z,4.50
2022-08-05T03:20:29.474Z,4.20
2022-08-05T03:23:34.634Z,4.45
2022-08-05T03:26:38.498Z,5.00
2022-08-05T03:29:46.003Z,4.25
2022-08-05T03:33:07.352Z,4.25
2022-08-05T03:36:12.358Z,4.18
2022-08-05T03:39:26.739Z,4.05
2022-08-05T03:42:32.276Z,4.15
2022-08-05T03:45:58.291Z,4.35
2022-08-05T03:48:59.488Z,4.28
2022-08-05T03:52:48.367Z,4.13
2022-08-05T03:55:52.812Z,4.30
2022-08-05T03:59:08.786Z,3.90
2022-08-05T04:02:17.302Z,4.07
2022-08-05T04:05:36.770Z,4.00
2022-08-05T04:08:45.226Z,4.03
2022-08-05T04:11:52.758Z,4.05
2022-08-05T04:14:57.780Z,3.65
2022-08-05T04:18:03.390Z,4.30
2022-08-05T04:21:07.335Z,3.83
2022-08-05T04:24:19.704Z,4.05
2022-08-05T04:27:33.350Z,4.03
2022-08-05T04:30:45.345Z,3.92
2022-08-05T04:34:18.439Z,3.50
2022-08-05T04:37:12.014Z,4.40
2022-08-05T04:40:19.478Z,3.85
2022-08-05T04:43:22.803Z,4.32
2022-08-05T04:46:29.071Z,4.28
2022-08-05T04:49:38.482Z,3.80
2022-08-05T04:52:55.534Z,3.90
2022-08-05T04:56:33.341Z,3.55
2022-08-05T04:59:37.419Z,3.60
2022-08-05T05:02:43.284Z,4.35
2022-08-05T05:06:40.556Z,4.07
2022-08-05T05:09:13.253Z,4.18
2022-08-05T05:12:18.817Z,3.72
2022-08-05T05:16:01.804Z,4.15
2022-08-05T05:19:02.744Z,4.13
2022-08-05T05:22:22.929Z,3.95
2022-08-05T05:25:32.502Z,3.58
2022-08-05T05:28:42.871Z,3.95
2022-08-05T05:31:48.237Z,4.35
2022-08-05T05:34:52.321Z,3.97
2022-08-05T05:38:01.701Z,3.70
2022-08-05T05:41:05.324Z,3.70
2022-08-05T05:44:26.988Z,4.18
2022-08-05T05:48:05.536Z,3.53
2022-08-05T05:50:59.142Z,3.78
2022-08-05T05:54:18.539Z,4.40
2022-08-05T05:57:23.252Z,4.57
2022-08-05T06:00:31.738Z,4.10
2022-08-05T06:03:54.128Z,4.20
2022-08-05T06:07:01.573Z,4.35
2022-08-05T06:10:10.040Z,4.63
2022-08-05T06:13:13.533Z,4.80
2022-08-05T06:16:30.696Z,5.70
2022-08-05T06:19:35.906Z,4.68
2022-08-05T06:22:40.557Z,4.25
2022-08-05T06:26:13.856Z,5.55
2022-08-05T06:29:25.551Z,5.05
2022-08-05T06:32:33.138Z,4.88
2022-08-05T06:36:08.078Z,5.28
2022-08-05T06:38:59.292Z,4.80
2022-08-05T06:42:04.082Z,5.20
2022-08-05T06:45:09.313Z,5.07
2022-08-05T06:48:54.499Z,4.45
2022-08-05T06:51:40.821Z,4.57
2022-08-05T06:54:43.973Z,4.65
2022-08-05T06:58:02.863Z,5.07
2022-08-05T07:01:21.048Z,4.68
2022-08-05T07:04:25.589Z,4.60
2022-08-05T07:07:43.340Z,4.28
2022-08-05T07:10:53.452Z,4.18
2022-08-05T07:14:15.636Z,4.65
2022-08-05T07:18:09.288Z,4.20
2022-08-05T07:20:55.935Z,3.90
2022-08-05T07:24:01.285Z,3.60
2022-08-05T07:27:04.733Z,3.63
2022-08-05T07:30:23.827Z,3.70
2022-08-05T07:33:36.588Z,4.00
2022-08-05T07:36:42.479Z,3.80
2022-08-05T07:40:26.044Z,3.97
2022-08-05T07:43:14.776Z,3.60
2022-08-05T07:46:26.060Z,3.38
2022-08-05T07:49:29.518Z,3.10
2022-08-05T07:52:33.946Z,2.60
2022-08-05T07:56:05.849Z,3.00
2022-08-05T07:59:00.057Z,2.95
2022-08-05T08:02:03.504Z,2.75
2022-08-05T08:05:07.698Z,2.60
2022-08-05T08:08:15.972Z,2.50
2022-08-05T08:11:27.640Z,2.88
2022-08-05T08:14:47.073Z,3.03
2022-08-05T08:17:52.873Z,2.55
2022-08-05T08:21:02.179Z,2.35
2022-08-05T08:24:13.741Z,2.80
2022-08-05T08:27:17.159Z,2.53
2022-08-05T08:30:32.912Z,2.50
2022-08-05T08:33:39.662Z,3.67
2022-08-05T08:36:50.181Z,2.40
2022-08-05T08:39:59.346Z,2.35
2022-08-05T08:45:01.617Z,1.95
2022-08-05T08:46:29.119Z,2.03
2022-08-05T08:50:22.880Z,1.90
2022-08-05T08:53:07.919Z,1.70
2022-08-05T08:56:17.234Z,1.75
2022-08-05T08:59:21.830Z,1.67
2022-08-05T09:02:30.972Z,1.83
2022-08-05T09:05:38.231Z,1.95
2022-08-05T09:08:42.178Z,1.95
2022-08-05T09:11:51.932Z,2.00
2022-08-05T09:15:05.777Z,1.67
2022-08-05T09:18:10.002Z,2.10
2022-08-05T09:21:20.885Z,1.75
2022-08-05T09:24:39.942Z,2.10
2022-08-05T09:28:04.051Z,2.00
2022-08-05T09:31:23.483Z,2.10
2022-08-05T09:34:51.560Z,1.83
2022-08-05T09:38:16.986Z,2.10
2022-08-05T09:41:19.479Z,2.10
2022-08-05T09:44:36.825Z,2.05
2022-08-05T09:47:55.351Z,1.90
2022-08-05T09:51:01.520Z,2.30
2022-08-05T09:54:08.333Z,2.40
2022-08-05T09:57:23.172Z,2.20
2022-08-05T10:00:29.622Z,2.10
2022-08-05T10:03:56.576Z,2.10
2022-08-05T10:06:59.930Z,4.68
2022-08-05T10:10:14.885Z,7.50
2022-08-05T10:13:44.081Z,17.25
2022-08-05T10:16:53.544Z,28.23
2022-08-05T10:20:04.564Z,28.02
2022-08-05T10:23:21.843Z,32.17
2022-08-05T10:26:51.180Z,31.40
2022-08-05T10:30:41.581Z,36.40
2022-08-05T10:33:21.262Z,36.55
2022-08-05T10:36:26.221Z,37.55
2022-08-05T10:40:03.218Z,30.92
2022-08-05T10:43:02.355Z,27.95
2022-08-05T10:46:09.348Z,14.35
2022-08-05T10:49:17.246Z,11.30
2022-08-05T10:52:49.396Z,10.32
2022-08-05T10:56:21.047Z,10.35
2022-08-05T11:00:04.399Z,8.80
2022-08-05T11:03:23.181Z,9.05
2022-08-05T11:06:31.876Z,8.45
2022-08-05T11:10:09.571Z,8.13
2022-08-05T11:13:40.750Z,7.68
2022-08-05T11:18:07.392Z,7.43
2022-08-05T11:20:57.618Z,6.53
2022-08-05T11:24:30.702Z,5.82
2022-08-05T11:27:50.760Z,4.43
2022-08-05T11:31:58.503Z,4.40
2022-08-05T11:34:59.533Z,5.03
2022-08-05T11:38:29.210Z,4.22
2022-08-05T11:41:56.477Z,3.92
2022-08-05T11:44:53.659Z,3.95
2022-08-05T11:47:59.026Z,4.20
2022-08-05T11:51:03.170Z,3.88
2022-08-05T11:54:07.073Z,3.15
2022-08-05T11:57:25.259Z,3.67
2022-08-05T12:00:30.378Z,3.50
2022-08-05T12:03:43.302Z,3.00
2022-08-05T12:07:01.836Z,3.03
2022-08-05T12:10:09.236Z,2.65
2022-08-05T12:13:28.068Z,2.80
2022-08-05T12:16:45.141Z,2.78
2022-08-05T12:20:26.353Z,2.60
2022-08-05T12:23:15.082Z,2.75
2022-08-05T12:26:18.175Z,1.85
2022-08-05T12:29:25.133Z,2.42
2022-08-05T12:32:28.461Z,2.53
2022-08-05T12:35:36.969Z,3.00
2022-08-05T12:38:43.282Z,2.60
2022-08-05T12:41:46.871Z,2.20
2022-08-05T12:44:53.036Z,2.33
2022-08-05T12:48:01.404Z,2.40
2022-08-05T12:52:11.210Z,2.70
2022-08-05T12:54:44.691Z,2.55
2022-08-05T12:58:38.569Z,2.30
2022-08-05T13:02:03.463Z,2.20
2022-08-05T13:04:52.423Z,2.70
2022-08-05T13:08:00.863Z,2.45
2022-08-05T13:11:04.516Z,2.30
2022-08-05T13:14:19.341Z,2.30
2022-08-05T13:17:31.863Z,2.50
2022-08-05T13:20:44.670Z,2.13
2022-08-05T13:23:52.187Z,2.35
2022-08-05T13:26:55.477Z,2.45
2022-08-05T13:30:34.510Z,2.35
2022-08-05T13:34:22.197Z,2.60
2022-08-05T13:36:47.455Z,2.20
2022-08-05T13:40:16.700Z,2.22
2022-08-05T13:43:22.037Z,2.30
2022-08-05T13:46:51.034Z,2.20
2022-08-05T13:49:53.298Z,2.50
2022-08-05T13:52:56.726Z,2.30
2022-08-05T13:56:02.179Z,2.47
2022-08-05T13:59:06.322Z,2.25
2022-08-05T14:02:26.478Z,2.20
2022-08-05T14:06:24.485Z,2.22
2022-08-05T14:08:57.639Z,2.20
2022-08-05T14:12:17.084Z,2.20
2022-08-05T14:16:06.038Z,2.40
2022-08-05T14:18:44.737Z,2.15
2022-08-05T14:22:09.998Z,2.35
2022-08-05T14:25:21.666Z,2.40
2022-08-05T14:28:27.083Z,2.45
2022-08-05T14:31:54.526Z,2.53
2022-08-05T14:34:53.689Z,2.33
2022-08-05T14:37:59.158Z,2.47
2022-08-05T14:41:07.719Z,2.35
2022-08-05T14:44:20.360Z,2.42
2022-08-05T14:48:02.948Z,2.47
2022-08-05T14:50:47.043Z,2.42
2022-08-05T14:54:06.609Z,2.60
2022-08-05T14:57:16.146Z,2.38
2022-08-05T15:00:21.434Z,2.40
2022-08-05T15:03:33.828Z,2.90
2022-08-05T15:06:37.927Z,2.80
2022-08-05T15:09:51.356Z,2.80
2022-08-05T15:13:03.668Z,2.70
2022-08-05T15:16:07.843Z,2.60
2022-08-05T15:19:23.514Z,2.30
2022-08-05T15:22:28.131Z,2.60
2022-08-05T15:25:51.667Z,3.00
2022-08-05T15:28:56.097Z,2.30
2022-08-05T15:32:03.111Z,2.60
2022-08-05T15:35:10.860Z,2.60
2022-08-05T15:38:34.522Z,2.78
2022-08-05T15:41:55.910Z,2.90
2022-08-05T15:45:01.028Z,2.53
2022-08-05T15:48:05.065Z,2.90
2022-08-05T15:51:09.862Z,3.13
2022-08-05T15:54:15.068Z,2.45
2022-08-05T15:57:20.259Z,2.88
2022-08-05T16:00:26.005Z,2.40
2022-08-05T16:03:35.917Z,2.50
2022-08-05T16:06:44.310Z,2.38
2022-08-05T16:09:47.314Z,2.30
2022-08-05T16:12:51.790Z,2.60
2022-08-05T16:15:55.589Z,2.83
2022-08-05T16:18:58.597Z,2.65
2022-08-05T16:22:03.711Z,2.60
2022-08-05T16:25:09.550Z,3.00
2022-08-05T16:28:15.543Z,2.88
2022-08-05T16:31:18.762Z,3.28
2022-08-05T16:34:23.345Z,3.28
2022-08-05T16:38:03.341Z,3.00
2022-08-05T16:40:54.964Z,2.88
2022-08-05T16:44:00.782Z,3.10
2022-08-05T16:47:04.087Z,3.22
2022-08-05T16:50:09.978Z,2.97
2022-08-05T16:53:23.357Z,3.42
2022-08-05T16:56:36.470Z,3.47
2022-08-05T17:00:02.919Z,3.13
2022-08-05T17:03:15.263Z,3.53
2022-08-05T17:06:24.722Z,3.38
2022-08-05T17:09:27.935Z,3.08
2022-08-05T17:12:51.486Z,2.80
2022-08-05T17:16:13.166Z,2.42
2022-08-05T17:19:19.746Z,2.72
2022-08-05T17:22:25.443Z,2.47
2022-08-05T17:25:33.786Z,2.42
2022-08-05T17:28:37.372Z,2.60
2022-08-05T17:31:58.433Z,2.75
2022-08-05T17:35:02.167Z,2.05
2022-08-05T17:38:07.790Z,2.03
2022-08-05T17:42:18.236Z,2.20
2022-08-05T17:44:34.878Z,2.10
2022-08-05T17:47:39.886Z,1.70
2022-08-05T17:50:43.098Z,1.52
2022-08-05T17:53:50.790Z,1.60
2022-08-05T17:56:58.553Z,1.33
2022-08-05T18:00:05.623Z,1.63
2022-08-05T18:03:10.284Z,0.98
2022-08-05T18:06:15.213Z,1.23
2022-08-05T18:09:18.774Z,1.10
2022-08-05T18:12:24.179Z,1.08
2022-08-05T18:15:28.083Z,1.00
2022-08-05T18:18:39.886Z,0.88
2022-08-05T18:22:08.832Z,0.80
2022-08-05T18:25:07.288Z,0.90
2022-08-05T18:28:10.386Z,0.93
2022-08-05T18:31:15.911Z,0.70
2022-08-05T18:34:21.672Z,0.73
2022-08-05T18:37:33.508Z,0.70
2022-08-05T18:41:57.289Z,0.60
2022-08-05T18:44:05.606Z,0.80
2022-08-05T18:47:12.153Z,0.70
2022-08-05T18:50:42.267Z,0.68
2022-08-05T18:53:50.470Z,0.65
2022-08-05T18:56:53.735Z,0.65
2022-08-05T19:00:02.314Z,0.73
2022-08-05T19:03:07.206Z,0.82
2022-08-05T19:06:22.165Z,0.63
2022-08-05T19:09:40.075Z,0.90
2022-08-05T19:12:43.465Z,0.90
2022-08-05T19:15:57.060Z,0.63
2022-08-05T19:19:01.585Z,0.70
2022-08-05T19:22:06.275Z,0.82
2022-08-05T19:25:10.247Z,0.80
2022-08-05T19:28:24.751Z,0.80
2022-08-05T19:31:27.843Z,0.90
2022-08-05T19:34:36.929Z,0.80
2022-08-05T19:38:06.906Z,0.90
2022-08-05T19:41:06.999Z,0.68
2022-08-05T19:44:13.027Z,0.80
2022-08-05T19:47:17.081Z,0.85
2022-08-05T19:50:21.002Z,1.00
2022-08-05T19:54:04.062Z,0.88
2022-08-05T19:56:52.522Z,0.80
2022-08-05T20:00:02.440Z,0.85
2022-08-05T20:03:14.392Z,0.88
2022-08-05T20:06:28.738Z,0.90
2022-08-05T20:09:54.375Z,0.90
2022-08-05T20:12:56.798Z,0.90
2022-08-05T20:16:00.813Z,1.00
2022-08-05T20:19:07.368Z,0.90
2022-08-05T20:22:10.423Z,0.80
2022-08-05T20:25:15.841Z,0.88
2022-08-05T20:28:18.833Z,0.88
2022-08-05T20:31:37.023Z,0.90
2022-08-05T20:34:46.255Z,0.93
2022-08-05T20:38:05.328Z,0.90
2022-08-05T20:41:11.587Z,1.00
2022-08-05T20:44:30.583Z,1.00
2022-08-05T20:47:34.117Z,1.23
2022-08-05T20:50:45.482Z,1.17
2022-08-05T20:53:56.398Z,0.90
2022-08-05T20:57:03.367Z,0.70
2022-08-05T21:00:21.338Z,0.80
2022-08-05T21:03:34.481Z,0.98
2022-08-05T21:06:38.325Z,1.08
2022-08-05T21:09:53.814Z,1.00
2022-08-05T21:13:08.959Z,1.10
2022-08-05T21:16:17.848Z,0.90
2022-08-05T21:19:20.831Z,1.00
2022-08-05T21:22:26.846Z,1.20
2022-08-05T21:25:34.131Z,0.70
2022-08-05T21:28:40.105Z,0.80
2022-08-05T21:31:51.383Z,0.82
2022-08-05T21:34:56.026Z,0.90
2022-08-05T21:38:18.025Z,0.70
2022-08-05T21:41:20.968Z,0.80
2022-08-05T21:44:27.058Z,0.98
2022-08-05T21:47:56.571Z,0.90
2022-08-05T21:50:54.322Z,0.80
2022-08-05T21:54:03.480Z,0.70
2022-08-05T21:57:30.948Z,0.80
2022-08-05T22:00:31.841Z,1.08
2022-08-05T22:03:48.568Z,1.00
2022-08-05T22:06:57.054Z,1.13
2022-08-05T22:10:00.659Z,1.00
2022-08-05T22:13:09.199Z,0.88
2022-08-05T22:16:41.611Z,1.10
2022-08-05T22:20:00.678Z,0.73
2022-08-05T22:24:01.168Z,0.85
2022-08-05T22:27:11.044Z,0.90
2022-08-05T22:30:17.507Z,1.00
2022-08-05T22:33:57.080Z,1.00
2022-08-05T22:36:44.862Z,1.25
2022-08-05T22:39:52.459Z,1.25
2022-08-05T22:42:58.501Z,0.75
2022-08-05T22:46:04.645Z,0.80
2022-08-05T22:50:18.483Z,0.90
2022-08-05T22:52:37.492Z,0.80
2022-08-05T22:55:56.261Z,1.00
2022-08-05T22:59:04.019Z,0.90
2022-08-05T23:02:29.183Z,0.90
2022-08-05T23:05:36.055Z,0.82
2022-08-05T23:08:39.286Z,0.80
2022-08-05T23:11:46.644Z,1.00
2022-08-05T23:14:53.322Z,0.90
2022-08-05T23:18:00.551Z,0.80
2022-08-05T23:21:07.702Z,0.90
2022-08-05T23:24:13.391Z,0.80
2022-08-05T23:27:17.270Z,0.90
2022-08-05T23:30:26.877Z,0.95
2022-08-05T23:34:05.323Z,1.02
2022-08-05T23:36:56.239Z,1.02
2022-08-05T23:40:07.479Z,1.17
2022-08-05T23:43:24.951Z,0.80
2022-08-05T23:46:37.501Z,0.93
2022-08-05T23:49:42.345Z,1.23
2022-08-05T23:52:51.610Z,1.10
2022-08-05T23:55:56.848Z,0.82
2022-08-05T23:59:02.312Z,1.25
